Juliaetta, ID (83535)

12:26 PM PDT on May 05, 2015 (GMT -0700)
Moose Draw | | Change Station
CLOSE
Current Station
Personal Weather Station
Location: Troy, ID
Elevation: 2569 ft
Nearby Weather Stations

Elev 2569 ft 46.70 °N, 116.79 °W | Updated 3 minutes ago

Partly Cloudy
Partly Cloudy
56.2 °F
Feels Like 56.2 °F
N
5.0
Wind Variable Wind from SSE
Gusts 13.0 mph

Today
High -- | Low -- °F
--% Chance of Precip.
Yesterday
High -- | Low -- °F
Precip. -- in
5:26 AM 8:01 PM
Full, 97% visible
Pressure 29.96 in
Visibility 10.0 miles
Clouds Mostly Cloudy 8000 ft
Dew Point 32 °F
Humidity 40%
Rainfall 0.00 in
Snow Depth Not available.
UV 5 out of 12
Pollen 10.10 out of 12
Air Quality Not available.
Flu Activity Sporadic
METAR KLWS 051856Z 32008KT 10SM BKN080 17/M02 A2997 RMK AO2 SLP144 T01671022

More Conditions Fewer Conditions

Pressure 29.96 in
Visibility 10.0 miles
Clouds Mostly Cloudy 8000 ft
Dew Point 32 °F
Humidity 40%
Rainfall 0.00 in
Snow Depth Not available.
UV 5 out of 12
Pollen 10.10 out of 12
Air Quality Not available.
Flu Activity Sporadic
METAR KLWS 051856Z 32008KT 10SM BKN080 17/M02 A2997 RMK AO2 SLP144 T01671022

More Conditions Fewer Conditions

10-Day Weather Forecast

Almanac

Astronomy

May. 05, 2015 Rise Set
Actual Time
Civil Twilight
Nautical Twilight
Astronomical Twilight
Moon
Length of Visible Light
Length of Day
Tomorrow will be .
, % of the Moon is Illuminated

Today's Extremes

State Highs State Lows

Community

WunderPhotos

Upload Photos

1,818,957 photos uploaded!

WunderBlogs® & News

Nearby

Air Quality

  Air Quality AQ Index Pollutant
Not available.

Snow Depth

Station Depth Elevation

Earthquake Activity

City Distance Mag. Time & Date
Minimum magnitude displayed is 2.5.

Coastal Water Temperatures

Place Temperature

Stations

Nearby Weather Stations

Station Location Temp. Windchill Dew Point Humidity Wind Precip. Elev Updated Type